sensor_id;sensor_type;location;lat;lon;timestamp;P1;durP1;ratioP1;P2;durP2;ratioP2
75746;SDS011;64363;52.198;21.020;2023-02-28T00:01:22;26.42;;;12.15;;
75746;SDS011;64363;52.198;21.020;2023-02-28T00:03:48;36.92;;;13.45;;
75746;SDS011;64363;52.198;21.020;2023-02-28T00:06:14;27.67;;;11.35;;
75746;SDS011;64363;52.198;21.020;2023-02-28T00:08:40;27.40;;;11.25;;
75746;SDS011;64363;52.198;21.020;2023-02-28T00:11:06;36.75;;;12.75;;
75746;SDS011;64363;52.198;21.020;2023-02-28T00:13:42;29.38;;;11.75;;
75746;SDS011;64363;52.198;21.020;2023-02-28T00:16:13;34.33;;;13.32;;
75746;SDS011;64363;52.198;21.020;2023-02-28T00:18:41;35.17;;;13.77;;
75746;SDS011;64363;52.198;21.020;2023-02-28T00:21:07;29.65;;;12.00;;
75746;SDS011;64363;52.198;21.020;2023-02-28T00:23:33;31.85;;;12.82;;
75746;SDS011;64363;52.198;21.020;2023-02-28T00:25:59;31.52;;;12.18;;
75746;SDS011;64363;52.198;21.020;2023-02-28T00:28:25;33.53;;;12.70;;
75746;SDS011;64363;52.198;21.020;2023-02-28T00:30:51;42.97;;;13.88;;
75746;SDS011;64363;52.198;21.020;2023-02-28T00:33:17;39.53;;;13.73;;
75746;SDS011;64363;52.198;21.020;2023-02-28T00:35:42;36.58;;;13.57;;
75746;SDS011;64363;52.198;21.020;2023-02-28T00:38:11;37.65;;;13.40;;
75746;SDS011;64363;52.198;21.020;2023-02-28T00:40:38;36.25;;;13.40;;
75746;SDS011;64363;52.198;21.020;2023-02-28T00:43:03;29.42;;;11.23;;
75746;SDS011;64363;52.198;21.020;2023-02-28T00:45:29;34.78;;;13.77;;
75746;SDS011;64363;52.198;21.020;2023-02-28T00:47:55;36.80;;;13.38;;
75746;SDS011;64363;52.198;21.020;2023-02-28T00:50:21;26.95;;;11.15;;
75746;SDS011;64363;52.198;21.020;2023-02-28T00:52:47;36.38;;;14.07;;
75746;SDS011;64363;52.198;21.020;2023-02-28T00:55:13;36.60;;;12.75;;
75746;SDS011;64363;52.198;21.020;2023-02-28T00:57:39;36.05;;;13.98;;
75746;SDS011;64363;52.198;21.020;2023-02-28T01:00:05;31.85;;;12.30;;
75746;SDS011;64363;52.198;21.020;2023-02-28T01:02:31;35.80;;;13.30;;
75746;SDS011;64363;52.198;21.020;2023-02-28T01:04:57;39.45;;;15.20;;
75746;SDS011;64363;52.198;21.020;2023-02-28T01:07:23;31.63;;;13.32;;
75746;SDS011;64363;52.198;21.020;2023-02-28T01:09:49;37.75;;;14.50;;
75746;SDS011;64363;52.198;21.020;2023-02-28T01:12:15;40.10;;;13.57;;
75746;SDS011;64363;52.198;21.020;2023-02-28T01:14:41;29.42;;;13.02;;
75746;SDS011;64363;52.198;21.020;2023-02-28T01:17:07;31.95;;;12.30;;
75746;SDS011;64363;52.198;21.020;2023-02-28T01:19:33;36.92;;;14.38;;
75746;SDS011;64363;52.198;21.020;2023-02-28T01:22:05;30.15;;;13.05;;
75746;SDS011;64363;52.198;21.020;2023-02-28T01:24:33;37.38;;;13.02;;
75746;SDS011;64363;52.198;21.020;2023-02-28T01:26:59;40.67;;;15.63;;
75746;SDS011;64363;52.198;21.020;2023-02-28T01:29:25;28.73;;;12.90;;
75746;SDS011;64363;52.198;21.020;2023-02-28T01:31:50;35.15;;;14.00;;
75746;SDS011;64363;52.198;21.020;2023-02-28T01:34:16;36.78;;;14.07;;
75746;SDS011;64363;52.198;21.020;2023-02-28T01:36:44;33.80;;;14.38;;
75746;SDS011;64363;52.198;21.020;2023-02-28T01:39:11;31.65;;;13.85;;
75746;SDS011;64363;52.198;21.020;2023-02-28T01:41:37;39.88;;;14.55;;
75746;SDS011;64363;52.198;21.020;2023-02-28T01:44:53;40.78;;;15.23;;
75746;SDS011;64363;52.198;21.020;2023-02-28T01:47:10;33.17;;;13.60;;
75746;SDS011;64363;52.198;21.020;2023-02-28T01:49:36;39.22;;;14.45;;
75746;SDS011;64363;52.198;21.020;2023-02-28T01:52:02;39.42;;;14.30;;
75746;SDS011;64363;52.198;21.020;2023-02-28T01:54:29;42.20;;;14.48;;
75746;SDS011;64363;52.198;21.020;2023-02-28T01:57:01;31.95;;;14.20;;
75746;SDS011;64363;52.198;21.020;2023-02-28T01:59:45;36.28;;;14.40;;
75746;SDS011;64363;52.198;21.020;2023-02-28T02:02:15;37.78;;;16.23;;
75746;SDS011;64363;52.198;21.020;2023-02-28T02:04:50;37.75;;;13.30;;
75746;SDS011;64363;52.198;21.020;2023-02-28T02:07:20;34.05;;;14.55;;
75746;SDS011;64363;52.198;21.020;2023-02-28T02:09:46;33.40;;;13.93;;
75746;SDS011;64363;52.198;21.020;2023-02-28T02:12:37;31.27;;;12.38;;
75746;SDS011;64363;52.198;21.020;2023-02-28T02:16:03;32.50;;;14.95;;
75746;SDS011;64363;52.198;21.020;2023-02-28T02:26:34;27.58;;;11.68;;
75746;SDS011;64363;52.198;21.020;2023-02-28T02:36:52;23.63;;;11.02;;
75746;SDS011;64363;52.198;21.020;2023-02-28T02:39:36;32.22;;;13.07;;
75746;SDS011;64363;52.198;21.020;2023-02-28T02:42:31;28.90;;;10.48;;
75746;SDS011;64363;52.198;21.020;2023-02-28T02:45:00;25.85;;;10.65;;
75746;SDS011;64363;52.198;21.020;2023-02-28T02:47:31;21.13;;;10.02;;
75746;SDS011;64363;52.198;21.020;2023-02-28T02:49:59;28.13;;;10.05;;
75746;SDS011;64363;52.198;21.020;2023-02-28T02:52:33;27.15;;;11.20;;
75746;SDS011;64363;52.198;21.020;2023-02-28T02:55:04;26.75;;;10.13;;
75746;SDS011;64363;52.198;21.020;2023-02-28T02:57:49;30.05;;;11.40;;
75746;SDS011;64363;52.198;21.020;2023-02-28T03:00:24;25.55;;;10.23;;
75746;SDS011;64363;52.198;21.020;2023-02-28T03:02:56;27.25;;;10.82;;
75746;SDS011;64363;52.198;21.020;2023-02-28T03:05:26;23.67;;;10.23;;
75746;SDS011;64363;52.198;21.020;2023-02-28T03:07:56;23.83;;;9.52;;
75746;SDS011;64363;52.198;21.020;2023-02-28T03:10:26;26.42;;;10.35;;
75746;SDS011;64363;52.198;21.020;2023-02-28T03:13:09;29.23;;;11.45;;
75746;SDS011;64363;52.198;21.020;2023-02-28T03:18:36;32.08;;;11.60;;
75746;SDS011;64363;52.198;21.020;2023-02-28T03:24:08;24.77;;;10.90;;
75746;SDS011;64363;52.198;21.020;2023-02-28T03:26:45;25.88;;;10.00;;
75746;SDS011;64363;52.198;21.020;2023-02-28T03:29:34;35.40;;;12.40;;
75746;SDS011;64363;52.198;21.020;2023-02-28T03:32:06;27.08;;;10.65;;
75746;SDS011;64363;52.198;21.020;2023-02-28T03:34:46;27.98;;;11.02;;
75746;SDS011;64363;52.198;21.020;2023-02-28T03:37:20;25.92;;;11.07;;
75746;SDS011;64363;52.198;21.020;2023-02-28T03:40:01;25.15;;;10.80;;
75746;SDS011;64363;52.198;21.020;2023-02-28T03:42:31;32.67;;;11.43;;
75746;SDS011;64363;52.198;21.020;2023-02-28T03:45:05;28.13;;;12.30;;
75746;SDS011;64363;52.198;21.020;2023-02-28T03:47:41;31.70;;;12.32;;
75746;SDS011;64363;52.198;21.020;2023-02-28T03:50:21;29.60;;;11.40;;
75746;SDS011;64363;52.198;21.020;2023-02-28T03:52:52;28.38;;;11.40;;
75746;SDS011;64363;52.198;21.020;2023-02-28T03:55:28;33.38;;;11.23;;
75746;SDS011;64363;52.198;21.020;2023-02-28T04:00:56;30.60;;;11.80;;
75746;SDS011;64363;52.198;21.020;2023-02-28T04:03:34;24.38;;;10.85;;
75746;SDS011;64363;52.198;21.020;2023-02-28T04:06:01;30.92;;;13.02;;
75746;SDS011;64363;52.198;21.020;2023-02-28T04:08:27;35.67;;;12.88;;
75746;SDS011;64363;52.198;21.020;2023-02-28T04:10:55;28.52;;;12.90;;
75746;SDS011;64363;52.198;21.020;2023-02-28T04:13:26;29.77;;;11.30;;
75746;SDS011;64363;52.198;21.020;2023-02-28T04:15:52;28.90;;;11.98;;
75746;SDS011;64363;52.198;21.020;2023-02-28T04:18:17;37.97;;;13.93;;
75746;SDS011;64363;52.198;21.020;2023-02-28T04:20:43;26.90;;;12.13;;
75746;SDS011;64363;52.198;21.020;2023-02-28T04:23:09;28.42;;;11.40;;
75746;SDS011;64363;52.198;21.020;2023-02-28T04:25:35;33.17;;;12.63;;
75746;SDS011;64363;52.198;21.020;2023-02-28T04:28:00;28.52;;;13.38;;
75746;SDS011;64363;52.198;21.020;2023-02-28T04:30:26;31.45;;;13.98;;
75746;SDS011;64363;52.198;21.020;2023-02-28T04:32:51;32.83;;;11.90;;
75746;SDS011;64363;52.198;21.020;2023-02-28T04:35:17;39.25;;;13.52;;
75746;SDS011;64363;52.198;21.020;2023-02-28T04:37:43;41.35;;;14.02;;
75746;SDS011;64363;52.198;21.020;2023-02-28T04:40:09;33.08;;;13.93;;
75746;SDS011;64363;52.198;21.020;2023-02-28T04:42:35;31.85;;;12.18;;
75746;SDS011;64363;52.198;21.020;2023-02-28T04:45:02;32.55;;;12.38;;
75746;SDS011;64363;52.198;21.020;2023-02-28T04:47:28;30.08;;;13.70;;
75746;SDS011;64363;52.198;21.020;2023-02-28T04:49:54;36.85;;;12.73;;
75746;SDS011;64363;52.198;21.020;2023-02-28T04:52:19;30.90;;;12.68;;
75746;SDS011;64363;52.198;21.020;2023-02-28T04:54:45;30.60;;;13.20;;
75746;SDS011;64363;52.198;21.020;2023-02-28T04:57:11;35.30;;;13.50;;
75746;SDS011;64363;52.198;21.020;2023-02-28T04:59:37;33.35;;;12.32;;
75746;SDS011;64363;52.198;21.020;2023-02-28T05:02:03;32.45;;;12.07;;
75746;SDS011;64363;52.198;21.020;2023-02-28T05:04:35;31.60;;;11.85;;
75746;SDS011;64363;52.198;21.020;2023-02-28T05:07:01;31.73;;;13.43;;
75746;SDS011;64363;52.198;21.020;2023-02-28T05:09:28;29.20;;;12.15;;
75746;SDS011;64363;52.198;21.020;2023-02-28T05:11:54;29.52;;;12.05;;
75746;SDS011;64363;52.198;21.020;2023-02-28T05:14:21;30.52;;;13.15;;
75746;SDS011;64363;52.198;21.020;2023-02-28T05:16:46;28.80;;;11.80;;
75746;SDS011;64363;52.198;21.020;2023-02-28T05:19:12;39.67;;;13.73;;
75746;SDS011;64363;52.198;21.020;2023-02-28T05:21:42;30.33;;;12.80;;
75746;SDS011;64363;52.198;21.020;2023-02-28T05:24:15;34.55;;;12.75;;
75746;SDS011;64363;52.198;21.020;2023-02-28T05:26:48;30.10;;;13.45;;
75746;SDS011;64363;52.198;21.020;2023-02-28T05:29:16;33.08;;;12.77;;
75746;SDS011;64363;52.198;21.020;2023-02-28T05:31:41;43.28;;;13.02;;
75746;SDS011;64363;52.198;21.020;2023-02-28T05:34:07;36.83;;;13.23;;
75746;SDS011;64363;52.198;21.020;2023-02-28T05:36:36;29.80;;;12.82;;
75746;SDS011;64363;52.198;21.020;2023-02-28T05:39:03;34.05;;;12.80;;
75746;SDS011;64363;52.198;21.020;2023-02-28T05:41:30;33.83;;;13.80;;
75746;SDS011;64363;52.198;21.020;2023-02-28T05:43:57;34.55;;;13.77;;
75746;SDS011;64363;52.198;21.020;2023-02-28T05:46:24;34.03;;;12.80;;
75746;SDS011;64363;52.198;21.020;2023-02-28T05:48:50;35.13;;;13.10;;
75746;SDS011;64363;52.198;21.020;2023-02-28T05:51:16;33.47;;;13.90;;
75746;SDS011;64363;52.198;21.020;2023-02-28T05:53:43;39.63;;;13.98;;
75746;SDS011;64363;52.198;21.020;2023-02-28T05:56:08;31.45;;;12.70;;
75746;SDS011;64363;52.198;21.020;2023-02-28T05:58:35;34.50;;;13.43;;
75746;SDS011;64363;52.198;21.020;2023-02-28T06:01:00;34.10;;;14.13;;
75746;SDS011;64363;52.198;21.020;2023-02-28T06:03:48;35.05;;;14.02;;
75746;SDS011;64363;52.198;21.020;2023-02-28T06:06:14;39.72;;;13.55;;
75746;SDS011;64363;52.198;21.020;2023-02-28T06:08:40;31.65;;;13.85;;
75746;SDS011;64363;52.198;21.020;2023-02-28T06:11:05;36.20;;;13.90;;
75746;SDS011;64363;52.198;21.020;2023-02-28T06:13:32;31.80;;;13.95;;
75746;SDS011;64363;52.198;21.020;2023-02-28T06:16:00;30.80;;;14.15;;
75746;SDS011;64363;52.198;21.020;2023-02-28T06:18:26;37.67;;;14.55;;
75746;SDS011;64363;52.198;21.020;2023-02-28T06:20:53;32.17;;;12.90;;
75746;SDS011;64363;52.198;21.020;2023-02-28T06:23:22;32.90;;;12.88;;
75746;SDS011;64363;52.198;21.020;2023-02-28T06:25:48;28.20;;;11.68;;
75746;SDS011;64363;52.198;21.020;2023-02-28T06:28:15;28.20;;;12.63;;
75746;SDS011;64363;52.198;21.020;2023-02-28T06:30:40;36.50;;;13.40;;
75746;SDS011;64363;52.198;21.020;2023-02-28T06:33:06;34.70;;;12.68;;
75746;SDS011;64363;52.198;21.020;2023-02-28T06:35:32;34.80;;;13.00;;
75746;SDS011;64363;52.198;21.020;2023-02-28T06:37:58;32.97;;;14.07;;
75746;SDS011;64363;52.198;21.020;2023-02-28T06:40:23;31.92;;;11.90;;
75746;SDS011;64363;52.198;21.020;2023-02-28T06:42:49;34.25;;;13.55;;
75746;SDS011;64363;52.198;21.020;2023-02-28T06:45:15;35.63;;;13.02;;
75746;SDS011;64363;52.198;21.020;2023-02-28T06:47:40;36.83;;;13.90;;
75746;SDS011;64363;52.198;21.020;2023-02-28T06:50:10;33.47;;;13.45;;
75746;SDS011;64363;52.198;21.020;2023-02-28T06:52:38;33.10;;;12.38;;
75746;SDS011;64363;52.198;21.020;2023-02-28T06:55:04;31.15;;;11.90;;
75746;SDS011;64363;52.198;21.020;2023-02-28T06:57:32;34.58;;;14.13;;
75746;SDS011;64363;52.198;21.020;2023-02-28T06:59:59;33.50;;;13.65;;
75746;SDS011;64363;52.198;21.020;2023-02-28T07:02:30;29.88;;;12.63;;
75746;SDS011;64363;52.198;21.020;2023-02-28T07:04:56;35.22;;;12.95;;
75746;SDS011;64363;52.198;21.020;2023-02-28T07:07:22;26.23;;;11.23;;
75746;SDS011;64363;52.198;21.020;2023-02-28T07:09:48;25.02;;;11.40;;
75746;SDS011;64363;52.198;21.020;2023-02-28T07:12:14;26.38;;;12.23;;
75746;SDS011;64363;52.198;21.020;2023-02-28T07:14:39;29.38;;;11.93;;
75746;SDS011;64363;52.198;21.020;2023-02-28T07:17:09;32.80;;;12.00;;
75746;SDS011;64363;52.198;21.020;2023-02-28T07:19:37;30.90;;;12.50;;
75746;SDS011;64363;52.198;21.020;2023-02-28T07:22:04;31.30;;;11.88;;
75746;SDS011;64363;52.198;21.020;2023-02-28T07:24:30;25.45;;;10.05;;
75746;SDS011;64363;52.198;21.020;2023-02-28T07:26:56;33.63;;;11.40;;
75746;SDS011;64363;52.198;21.020;2023-02-28T07:29:22;26.58;;;10.55;;
75746;SDS011;64363;52.198;21.020;2023-02-28T07:31:47;20.58;;;9.93;;
75746;SDS011;64363;52.198;21.020;2023-02-28T07:34:15;30.20;;;11.70;;
75746;SDS011;64363;52.198;21.020;2023-02-28T07:36:41;25.38;;;10.85;;
75746;SDS011;64363;52.198;21.020;2023-02-28T07:39:07;24.58;;;10.20;;
75746;SDS011;64363;52.198;21.020;2023-02-28T07:41:36;23.73;;;11.35;;
75746;SDS011;64363;52.198;21.020;2023-02-28T07:44:09;27.33;;;10.55;;
75746;SDS011;64363;52.198;21.020;2023-02-28T07:46:36;25.98;;;10.98;;
75746;SDS011;64363;52.198;21.020;2023-02-28T07:49:03;22.75;;;10.00;;
75746;SDS011;64363;52.198;21.020;2023-02-28T07:51:29;25.95;;;10.60;;
75746;SDS011;64363;52.198;21.020;2023-02-28T07:54:03;20.15;;;9.10;;
75746;SDS011;64363;52.198;21.020;2023-02-28T07:56:29;17.98;;;8.63;;
75746;SDS011;64363;52.198;21.020;2023-02-28T07:58:55;20.67;;;7.78;;
75746;SDS011;64363;52.198;21.020;2023-02-28T08:01:21;13.90;;;7.10;;
75746;SDS011;64363;52.198;21.020;2023-02-28T08:03:47;17.42;;;7.28;;
75746;SDS011;64363;52.198;21.020;2023-02-28T08:06:17;21.27;;;9.38;;
75746;SDS011;64363;52.198;21.020;2023-02-28T08:08:44;17.80;;;7.38;;
75746;SDS011;64363;52.198;21.020;2023-02-28T08:11:11;20.15;;;10.27;;
75746;SDS011;64363;52.198;21.020;2023-02-28T08:13:37;24.30;;;12.30;;
75746;SDS011;64363;52.198;21.020;2023-02-28T08:16:03;21.50;;;11.25;;
75746;SDS011;64363;52.198;21.020;2023-02-28T08:18:29;16.88;;;8.90;;
75746;SDS011;64363;52.198;21.020;2023-02-28T08:20:55;20.73;;;10.90;;
75746;SDS011;64363;52.198;21.020;2023-02-28T08:23:22;23.33;;;10.63;;
75746;SDS011;64363;52.198;21.020;2023-02-28T08:25:55;24.40;;;10.82;;
75746;SDS011;64363;52.198;21.020;2023-02-28T08:28:21;25.42;;;11.30;;
75746;SDS011;64363;52.198;21.020;2023-02-28T08:30:47;20.60;;;9.60;;
75746;SDS011;64363;52.198;21.020;2023-02-28T08:33:14;20.35;;;9.45;;
75746;SDS011;64363;52.198;21.020;2023-02-28T08:35:40;23.20;;;11.02;;
75746;SDS011;64363;52.198;21.020;2023-02-28T08:38:05;20.85;;;9.93;;
75746;SDS011;64363;52.198;21.020;2023-02-28T08:40:31;22.85;;;10.45;;
75746;SDS011;64363;52.198;21.020;2023-02-28T08:42:57;26.42;;;11.65;;
75746;SDS011;64363;52.198;21.020;2023-02-28T08:45:24;27.20;;;11.50;;
75746;SDS011;64363;52.198;21.020;2023-02-28T08:47:49;23.88;;;10.85;;
75746;SDS011;64363;52.198;21.020;2023-02-28T08:50:17;24.00;;;12.02;;
75746;SDS011;64363;52.198;21.020;2023-02-28T08:52:43;22.67;;;11.07;;
75746;SDS011;64363;52.198;21.020;2023-02-28T08:55:09;38.17;;;10.88;;
75746;SDS011;64363;52.198;21.020;2023-02-28T08:57:35;25.88;;;11.15;;
75746;SDS011;64363;52.198;21.020;2023-02-28T09:00:02;27.08;;;11.85;;
75746;SDS011;64363;52.198;21.020;2023-02-28T09:02:32;27.20;;;11.57;;
75746;SDS011;64363;52.198;21.020;2023-02-28T09:04:58;21.58;;;10.25;;
75746;SDS011;64363;52.198;21.020;2023-02-28T09:07:24;25.85;;;11.65;;
75746;SDS011;64363;52.198;21.020;2023-02-28T09:09:50;21.10;;;10.73;;
75746;SDS011;64363;52.198;21.020;2023-02-28T09:12:22;24.95;;;11.32;;
75746;SDS011;64363;52.198;21.020;2023-02-28T09:14:50;23.52;;;11.23;;
75746;SDS011;64363;52.198;21.020;2023-02-28T09:17:16;23.73;;;10.20;;
75746;SDS011;64363;52.198;21.020;2023-02-28T09:19:42;22.63;;;10.25;;
75746;SDS011;64363;52.198;21.020;2023-02-28T09:22:08;23.30;;;11.27;;
75746;SDS011;64363;52.198;21.020;2023-02-28T09:24:35;23.27;;;10.80;;
75746;SDS011;64363;52.198;21.020;2023-02-28T09:27:02;22.52;;;11.80;;
75746;SDS011;64363;52.198;21.020;2023-02-28T09:29:28;28.27;;;11.93;;
75746;SDS011;64363;52.198;21.020;2023-02-28T09:31:54;25.30;;;11.75;;
75746;SDS011;64363;52.198;21.020;2023-02-28T09:34:20;23.65;;;11.50;;
75746;SDS011;64363;52.198;21.020;2023-02-28T09:36:45;33.45;;;11.43;;
75746;SDS011;64363;52.198;21.020;2023-02-28T09:39:12;25.17;;;10.63;;
75746;SDS011;64363;52.198;21.020;2023-02-28T09:41:44;27.25;;;11.65;;
75746;SDS011;64363;52.198;21.020;2023-02-28T09:44:18;22.27;;;10.68;;
75746;SDS011;64363;52.198;21.020;2023-02-28T09:46:46;23.38;;;10.52;;
75746;SDS011;64363;52.198;21.020;2023-02-28T09:49:19;20.55;;;10.55;;
75746;SDS011;64363;52.198;21.020;2023-02-28T09:51:53;25.05;;;12.13;;
75746;SDS011;64363;52.198;21.020;2023-02-28T09:54:24;28.70;;;12.15;;
75746;SDS011;64363;52.198;21.020;2023-02-28T10:05:04;25.92;;;10.93;;
75746;SDS011;64363;52.198;21.020;2023-02-28T10:07:56;22.65;;;9.55;;
75746;SDS011;64363;52.198;21.020;2023-02-28T10:10:36;26.15;;;10.82;;
75746;SDS011;64363;52.198;21.020;2023-02-28T10:13:12;25.67;;;12.82;;
75746;SDS011;64363;52.198;21.020;2023-02-28T10:15:43;23.00;;;12.15;;
75746;SDS011;64363;52.198;21.020;2023-02-28T10:18:13;24.17;;;11.50;;
75746;SDS011;64363;52.198;21.020;2023-02-28T10:20:43;25.50;;;12.25;;
75746;SDS011;64363;52.198;21.020;2023-02-28T10:28:15;24.88;;;10.10;;
75746;SDS011;64363;52.198;21.020;2023-02-28T10:30:42;24.08;;;11.85;;
75746;SDS011;64363;52.198;21.020;2023-02-28T10:33:19;25.25;;;11.23;;
75746;SDS011;64363;52.198;21.020;2023-02-28T10:35:48;25.55;;;11.68;;
75746;SDS011;64363;52.198;21.020;2023-02-28T10:38:16;24.45;;;11.98;;
75746;SDS011;64363;52.198;21.020;2023-02-28T10:40:45;25.10;;;12.30;;
75746;SDS011;64363;52.198;21.020;2023-02-28T10:45:40;34.80;;;14.13;;
75746;SDS011;64363;52.198;21.020;2023-02-28T10:56:03;28.75;;;13.40;;
75746;SDS011;64363;52.198;21.020;2023-02-28T11:00:57;27.90;;;13.02;;
75746;SDS011;64363;52.198;21.020;2023-02-28T11:05:54;24.70;;;12.23;;
75746;SDS011;64363;52.198;21.020;2023-02-28T11:08:20;41.47;;;17.13;;
75746;SDS011;64363;52.198;21.020;2023-02-28T11:10:46;26.48;;;13.13;;
75746;SDS011;64363;52.198;21.020;2023-02-28T11:13:24;29.40;;;13.07;;
75746;SDS011;64363;52.198;21.020;2023-02-28T11:15:54;30.33;;;12.95;;
75746;SDS011;64363;52.198;21.020;2023-02-28T11:18:55;29.58;;;13.77;;
75746;SDS011;64363;52.198;21.020;2023-02-28T11:21:33;30.30;;;12.98;;
75746;SDS011;64363;52.198;21.020;2023-02-28T11:24:03;24.48;;;12.30;;
75746;SDS011;64363;52.198;21.020;2023-02-28T11:26:44;27.33;;;13.95;;
75746;SDS011;64363;52.198;21.020;2023-02-28T11:29:21;32.45;;;14.45;;
75746;SDS011;64363;52.198;21.020;2023-02-28T11:34:31;27.70;;;12.57;;
75746;SDS011;64363;52.198;21.020;2023-02-28T11:36:58;27.00;;;12.02;;
75746;SDS011;64363;52.198;21.020;2023-02-28T11:39:26;27.50;;;13.32;;
75746;SDS011;64363;52.198;21.020;2023-02-28T11:47:04;30.13;;;14.30;;
75746;SDS011;64363;52.198;21.020;2023-02-28T11:53:10;28.10;;;13.88;;
75746;SDS011;64363;52.198;21.020;2023-02-28T12:00:57;30.92;;;15.32;;
75746;SDS011;64363;52.198;21.020;2023-02-28T12:06:18;35.13;;;15.13;;
75746;SDS011;64363;52.198;21.020;2023-02-28T12:14:31;25.13;;;13.63;;
75746;SDS011;64363;52.198;21.020;2023-02-28T12:25:56;30.33;;;13.50;;
75746;SDS011;64363;52.198;21.020;2023-02-28T12:28:30;27.77;;;13.60;;
75746;SDS011;64363;52.198;21.020;2023-02-28T12:31:01;28.30;;;14.15;;
75746;SDS011;64363;52.198;21.020;2023-02-28T12:33:38;30.05;;;13.90;;
75746;SDS011;64363;52.198;21.020;2023-02-28T12:36:11;36.05;;;14.00;;
75746;SDS011;64363;52.198;21.020;2023-02-28T12:38:51;29.77;;;14.02;;
75746;SDS011;64363;52.198;21.020;2023-02-28T12:44:10;31.13;;;13.15;;
75746;SDS011;64363;52.198;21.020;2023-02-28T12:46:41;26.65;;;13.23;;
75746;SDS011;64363;52.198;21.020;2023-02-28T12:49:20;32.85;;;13.85;;
75746;SDS011;64363;52.198;21.020;2023-02-28T12:51:50;33.50;;;12.93;;
75746;SDS011;64363;52.198;21.020;2023-02-28T12:54:21;28.52;;;13.00;;
75746;SDS011;64363;52.198;21.020;2023-02-28T12:57:09;28.00;;;13.50;;
75746;SDS011;64363;52.198;21.020;2023-02-28T12:59:53;27.05;;;12.82;;
75746;SDS011;64363;52.198;21.020;2023-02-28T13:10:48;27.20;;;11.98;;
75746;SDS011;64363;52.198;21.020;2023-02-28T13:13:29;28.13;;;13.68;;
75746;SDS011;64363;52.198;21.020;2023-02-28T13:15:56;32.25;;;13.55;;
75746;SDS011;64363;52.198;21.020;2023-02-28T13:18:30;31.63;;;14.32;;
75746;SDS011;64363;52.198;21.020;2023-02-28T13:20:58;26.95;;;14.85;;
75746;SDS011;64363;52.198;21.020;2023-02-28T13:26:22;28.35;;;13.20;;
75746;SDS011;64363;52.198;21.020;2023-02-28T13:29:49;34.30;;;14.07;;
75746;SDS011;64363;52.198;21.020;2023-02-28T13:34:36;40.05;;;13.63;;
75746;SDS011;64363;52.198;21.020;2023-02-28T13:39:56;34.47;;;15.38;;
75746;SDS011;64363;52.198;21.020;2023-02-28T13:42:56;30.08;;;15.18;;
75746;SDS011;64363;52.198;21.020;2023-02-28T13:47:56;27.23;;;13.15;;
75746;SDS011;64363;52.198;21.020;2023-02-28T13:52:57;28.45;;;14.60;;
75746;SDS011;64363;52.198;21.020;2023-02-28T13:55:53;36.13;;;15.88;;
75746;SDS011;64363;52.198;21.020;2023-02-28T14:01:40;24.73;;;14.27;;
75746;SDS011;64363;52.198;21.020;2023-02-28T14:06:58;29.90;;;14.25;;
75746;SDS011;64363;52.198;21.020;2023-02-28T14:09:35;27.33;;;14.27;;
75746;SDS011;64363;52.198;21.020;2023-02-28T14:12:51;32.50;;;15.85;;
75746;SDS011;64363;52.198;21.020;2023-02-28T14:17:54;32.10;;;14.93;;
75746;SDS011;64363;52.198;21.020;2023-02-28T14:20:22;25.67;;;13.38;;
75746;SDS011;64363;52.198;21.020;2023-02-28T14:22:54;31.50;;;14.68;;
75746;SDS011;64363;52.198;21.020;2023-02-28T14:26:25;34.85;;;15.25;;
75746;SDS011;64363;52.198;21.020;2023-02-28T14:31:41;28.15;;;14.70;;
75746;SDS011;64363;52.198;21.020;2023-02-28T14:36:50;29.02;;;14.73;;
75746;SDS011;64363;52.198;21.020;2023-02-28T14:39:20;25.83;;;14.25;;
75746;SDS011;64363;52.198;21.020;2023-02-28T14:41:49;26.48;;;14.23;;
75746;SDS011;64363;52.198;21.020;2023-02-28T14:44:24;32.55;;;15.70;;
75746;SDS011;64363;52.198;21.020;2023-02-28T14:47:02;28.95;;;14.40;;
75746;SDS011;64363;52.198;21.020;2023-02-28T14:49:35;26.67;;;14.18;;
75746;SDS011;64363;52.198;21.020;2023-02-28T14:52:07;31.33;;;14.38;;
75746;SDS011;64363;52.198;21.020;2023-02-28T14:54:41;32.25;;;14.73;;
75746;SDS011;64363;52.198;21.020;2023-02-28T14:57:20;26.95;;;12.85;;
75746;SDS011;64363;52.198;21.020;2023-02-28T15:00:13;40.08;;;14.90;;
75746;SDS011;64363;52.198;21.020;2023-02-28T15:02:39;36.78;;;14.27;;
75746;SDS011;64363;52.198;21.020;2023-02-28T15:07:34;28.33;;;13.02;;
75746;SDS011;64363;52.198;21.020;2023-02-28T15:12:41;31.83;;;13.13;;
75746;SDS011;64363;52.198;21.020;2023-02-28T15:15:17;32.70;;;13.82;;
75746;SDS011;64363;52.198;21.020;2023-02-28T15:17:48;28.52;;;12.75;;
75746;SDS011;64363;52.198;21.020;2023-02-28T15:20:18;31.15;;;14.07;;
75746;SDS011;64363;52.198;21.020;2023-02-28T15:22:44;31.45;;;12.45;;
75746;SDS011;64363;52.198;21.020;2023-02-28T15:25:13;32.00;;;12.20;;
75746;SDS011;64363;52.198;21.020;2023-02-28T15:27:44;30.23;;;13.95;;
75746;SDS011;64363;52.198;21.020;2023-02-28T15:30:15;27.35;;;13.32;;
75746;SDS011;64363;52.198;21.020;2023-02-28T15:32:43;30.42;;;13.27;;
75746;SDS011;64363;52.198;21.020;2023-02-28T15:37:57;26.58;;;12.93;;
75746;SDS011;64363;52.198;21.020;2023-02-28T15:40:23;27.15;;;12.40;;
75746;SDS011;64363;52.198;21.020;2023-02-28T15:43:00;27.27;;;12.85;;
75746;SDS011;64363;52.198;21.020;2023-02-28T18:33:02;52.45;;;20.60;;
75746;SDS011;64363;52.198;21.020;2023-02-28T18:35:28;60.67;;;21.95;;
75746;SDS011;64363;52.198;21.020;2023-02-28T18:38:05;60.40;;;22.52;;
75746;SDS011;64363;52.198;21.020;2023-02-28T18:40:33;60.75;;;21.95;;
75746;SDS011;64363;52.198;21.020;2023-02-28T18:42:59;56.42;;;22.77;;
75746;SDS011;64363;52.198;21.020;2023-02-28T18:45:25;56.60;;;20.63;;
75746;SDS011;64363;52.198;21.020;2023-02-28T18:47:52;58.33;;;21.75;;
75746;SDS011;64363;52.198;21.020;2023-02-28T18:50:17;57.83;;;20.27;;
75746;SDS011;64363;52.198;21.020;2023-02-28T18:52:43;57.08;;;21.08;;
75746;SDS011;64363;52.198;21.020;2023-02-28T18:55:09;55.15;;;21.27;;
75746;SDS011;64363;52.198;21.020;2023-02-28T18:57:36;61.40;;;22.13;;
75746;SDS011;64363;52.198;21.020;2023-02-28T19:00:02;69.43;;;24.65;;
75746;SDS011;64363;52.198;21.020;2023-02-28T19:02:28;60.92;;;22.58;;
75746;SDS011;64363;52.198;21.020;2023-02-28T19:04:54;66.88;;;22.00;;
75746;SDS011;64363;52.198;21.020;2023-02-28T19:07:20;65.55;;;22.23;;
75746;SDS011;64363;52.198;21.020;2023-02-28T19:09:45;62.10;;;23.50;;
75746;SDS011;64363;52.198;21.020;2023-02-28T19:12:11;67.97;;;24.25;;
75746;SDS011;64363;52.198;21.020;2023-02-28T19:14:37;70.57;;;25.75;;
75746;SDS011;64363;52.198;21.020;2023-02-28T19:17:03;65.53;;;24.60;;
75746;SDS011;64363;52.198;21.020;2023-02-28T19:19:29;77.85;;;26.95;;
75746;SDS011;64363;52.198;21.020;2023-02-28T19:21:55;80.75;;;26.25;;
75746;SDS011;64363;52.198;21.020;2023-02-28T19:24:20;72.85;;;26.90;;
75746;SDS011;64363;52.198;21.020;2023-02-28T19:26:46;74.22;;;29.10;;